Time;durP1;ratioP1;P1;durP2;ratioP2;P2;SDS_P1;SDS_P2;PMS_P1;PMS_P2;Temp;Humidity;BMP_temperature;BMP_pressure;BME280_temperature;BME280_humidity;BME280_pressure;Samples;Min_cycle;Max_cycle;Signal;HPM_P1;HPM_P2
2021/08/15 00:00:47;;;;;;;;;;;;;;;20.70;79.42;100144.80;1623574;86;20141;-81
2021/08/15 00:03:13;;;;;;;;;;;;;;;20.68;79.27;100137.47;1620164;88;20176;-81
2021/08/15 00:05:42;;;;;;;;;;;;;;;20.62;78.64;100136.48;1622540;86;20230;-81
2021/08/15 00:08:08;;;;;;;;;;;;;;;20.55;78.12;100143.77;1621117;86;21997;-81
2021/08/15 00:10:35;;;;;;;;;;;;;;;20.52;78.68;100128.92;1622323;86;20481;-81
2021/08/15 00:13:02;;;;;;;;;;;;;;;20.48;78.77;100132.27;1621887;88;20181;-83
2021/08/15 00:15:28;;;;;;;;;;;;;;;20.43;79.24;100133.78;1622169;88;20199;-81
2021/08/15 00:17:54;;;;;;;;;;;;;;;20.50;79.19;100128.87;1622062;88;20230;-81
2021/08/15 00:20:19;;;;;;;;;;;;;;;20.47;78.12;100122.61;1623668;87;21769;-81
2021/08/15 00:22:45;;;;;;;;;;;;;;;20.42;78.17;100128.11;1621923;86;20140;-81
2021/08/15 00:25:12;;;;;;;;;;;;;;;20.35;78.49;100127.87;1626755;86;20186;-81
2021/08/15 00:27:38;;;;;;;;;;;;;;;20.29;78.80;100129.59;1622292;88;20201;-81
2021/08/15 00:30:04;;;;;;;;;;;;;;;20.31;79.30;100134.20;1625802;87;20465;-81
2021/08/15 00:32:30;;;;;;;;;;;;;;;20.31;79.41;100137.42;1585132;88;21775;-81
2021/08/15 00:34:55;;;;;;;;;;;;;;;20.32;79.43;100134.48;1623178;87;20195;-81
2021/08/15 00:37:22;;;;;;;;;;;;;;;20.30;79.26;100133.89;1619590;88;20163;-81
2021/08/15 00:39:47;;;;;;;;;;;;;;;20.29;79.13;100134.95;1606241;87;20779;-80
2021/08/15 00:42:13;;;;;;;;;;;;;;;20.31;78.84;100135.55;1635650;87;20137;-81
2021/08/15 00:44:38;;;;;;;;;;;;;;;20.24;78.96;100129.41;1639329;86;21042;-81
2021/08/15 00:47:06;;;;;;;;;;;;;;;20.22;78.84;100128.83;1637842;86;20179;-81
2021/08/15 00:49:33;;;;;;;;;;;;;;;20.14;79.23;100127.23;1639442;86;20140;-80
2021/08/15 00:51:59;;;;;;;;;;;;;;;20.08;79.74;100124.91;1639901;87;20679;-79
2021/08/15 00:54:25;;;;;;;;;;;;;;;20.04;79.69;100122.39;1632554;87;20265;-81
2021/08/15 00:56:51;;;;;;;;;;;;;;;19.94;80.04;100120.70;1639445;86;21377;-80
2021/08/15 00:59:17;;;;;;;;;;;;;;;19.91;80.31;100119.80;1637923;86;20210;-80
2021/08/15 01:01:44;;;;;;;;;;;;;;;19.92;79.92;100116.09;1639216;87;20270;-81
2021/08/15 01:04:10;;;;;;;;;;;;;;;19.88;79.40;100118.90;1637171;86;20693;-81
2021/08/15 01:06:35;;;;;;;;;;;;;;;19.90;79.60;100116.81;1638180;85;20119;-81
2021/08/15 01:09:02;;;;;;;;;;;;;;;19.92;79.35;100117.43;1637839;86;21181;-81
2021/08/15 01:11:29;;;;;;;;;;;;;;;19.83;79.25;100112.85;1637826;86;20493;-81
2021/08/15 01:13:54;;;;;;;;;;;;;;;19.87;78.69;100110.55;1611752;87;20290;-81
2021/08/15 01:16:20;;;;;;;;;;;;;;;19.88;78.96;100111.67;1637408;86;21011;-80
2021/08/15 01:18:46;;;;;;;;;;;;;;;19.95;78.35;100108.95;1635495;87;20135;-82
2021/08/15 01:21:13;;;;;;;;;;;;;;;19.93;78.36;100115.03;1639820;86;21180;-81
2021/08/15 01:23:40;;;;;;;;;;;;;;;19.85;78.65;100105.94;1606611;87;20367;-81
2021/08/15 01:26:06;;;;;;;;;;;;;;;19.89;78.76;100103.12;1639410;87;20306;-82
2021/08/15 01:28:33;;;;;;;;;;;;;;;19.95;78.23;100111.63;1636512;87;20334;-82
2021/08/15 01:31:01;;;;;;;;;;;;;;;19.89;78.28;100107.15;1639364;87;20242;-81
2021/08/15 01:33:28;;;;;;;;;;;;;;;19.82;77.89;100102.34;1637958;87;21168;-81
2021/08/15 01:35:54;;;;;;;;;;;;;;;19.80;78.02;100099.08;1635103;85;20191;-82
2021/08/15 01:38:22;;;;;;;;;;;;;;;19.77;78.18;100111.04;1638239;86;20201;-82
2021/08/15 01:40:50;;;;;;;;;;;;;;;19.74;77.88;100104.75;1595451;87;20185;-82
2021/08/15 01:43:16;;;;;;;;;;;;;;;19.69;78.40;100102.72;1625650;87;20221;-82
2021/08/15 01:45:41;;;;;;;;;;;;;;;19.73;78.54;100099.92;1626809;87;21106;-82
2021/08/15 01:48:07;;;;;;;;;;;;;;;19.78;78.54;100103.81;1635168;85;20154;-82
2021/08/15 01:50:32;;;;;;;;;;;;;;;19.80;78.35;100104.44;1630875;86;20151;-82
2021/08/15 01:52:58;;;;;;;;;;;;;;;19.77;78.56;100101.66;1624430;87;20169;-82
2021/08/15 01:55:23;;;;;;;;;;;;;;;19.73;78.14;100094.56;1625987;87;21045;-82
2021/08/15 01:57:50;;;;;;;;;;;;;;;19.81;77.84;100100.70;1630418;87;21111;-82
2021/08/15 02:00:18;;;;;;;;;;;;;;;19.85;77.62;100096.55;1627779;86;20221;-82
2021/08/15 02:02:43;;;;;;;;;;;;;;;19.83;77.21;100098.64;1626119;86;20183;-82
2021/08/15 02:05:15;;;;;;;;;;;;;;;19.77;77.42;100095.50;1626621;87;20194;-81
2021/08/15 02:07:39;;;;;;;;;;;;;;;19.79;77.18;100094.75;1625229;87;20154;-81
2021/08/15 02:10:05;;;;;;;;;;;;;;;19.67;77.39;100090.07;1632174;87;21965;-80
2021/08/15 02:12:31;;;;;;;;;;;;;;;19.64;77.64;100085.14;1601567;87;20630;-81
2021/08/15 02:14:56;;;;;;;;;;;;;;;19.55;78.03;100081.90;1623817;87;20175;-81
2021/08/15 02:17:25;;;;;;;;;;;;;;;19.48;78.38;100083.83;1625182;87;20490;-80
2021/08/15 02:19:51;;;;;;;;;;;;;;;19.44;78.74;100088.48;1630981;87;20232;-81
2021/08/15 02:22:17;;;;;;;;;;;;;;;19.42;78.65;100078.48;1626165;86;21102;-82
2021/08/15 02:24:42;;;;;;;;;;;;;;;19.47;78.48;100082.17;1626074;87;20174;-81
2021/08/15 02:27:08;;;;;;;;;;;;;;;19.36;78.64;100081.00;1633289;87;20219;-81
2021/08/15 02:29:33;;;;;;;;;;;;;;;19.25;79.12;100081.70;1632203;86;20432;-81
2021/08/15 02:32:00;;;;;;;;;;;;;;;19.26;79.68;100077.97;1625634;87;20161;-81
2021/08/15 02:34:27;;;;;;;;;;;;;;;19.24;79.56;100078.71;1626142;87;22061;-81
2021/08/15 02:36:53;;;;;;;;;;;;;;;19.29;79.70;100078.88;1602410;87;20219;-81
2021/08/15 02:39:18;;;;;;;;;;;;;;;19.34;79.36;100080.41;1627022;87;20123;-80
2021/08/15 02:41:44;;;;;;;;;;;;;;;19.40;79.20;100075.22;1635763;87;20646;-80
2021/08/15 02:44:11;;;;;;;;;;;;;;;19.44;78.89;100083.95;1632815;85;20155;-81
2021/08/15 02:46:37;;;;;;;;;;;;;;;19.42;78.27;100079.33;1634505;85;21108;-81
2021/08/15 02:49:04;;;;;;;;;;;;;;;19.40;78.10;100080.58;1634350;87;20772;-81
2021/08/15 02:51:30;;;;;;;;;;;;;;;19.35;78.35;100080.69;1634993;87;20486;-81
2021/08/15 02:53:56;;;;;;;;;;;;;;;19.34;78.28;100083.09;1637063;87;20207;-81
2021/08/15 02:56:21;;;;;;;;;;;;;;;19.35;78.42;100078.55;1610400;87;20520;-81
2021/08/15 02:58:49;;;;;;;;;;;;;;;19.36;78.73;100075.66;1635978;87;21131;-81
2021/08/15 03:01:14;;;;;;;;;;;;;;;19.35;78.97;100083.38;1616701;87;20469;-82
2021/08/15 03:03:41;;;;;;;;;;;;;;;19.35;79.49;100079.35;1610139;85;20541;-82
2021/08/15 03:06:07;;;;;;;;;;;;;;;19.32;79.97;100073.63;1635334;87;20203;-83
2021/08/15 03:08:32;;;;;;;;;;;;;;;19.31;80.22;100082.18;1635329;87;20205;-82
2021/08/15 03:10:58;;;;;;;;;;;;;;;19.27;80.69;100079.62;1630337;86;21855;-82
2021/08/15 03:13:24;;;;;;;;;;;;;;;19.29;81.06;100069.50;1634143;87;20297;-80
2021/08/15 03:15:50;;;;;;;;;;;;;;;19.25;81.55;100080.36;1639290;86;20268;-80
2021/08/15 03:18:18;;;;;;;;;;;;;;;19.24;81.85;100076.03;1613308;87;20728;-80
2021/08/15 03:20:43;;;;;;;;;;;;;;;19.27;82.02;100076.94;1637157;86;20225;-80
2021/08/15 03:23:10;;;;;;;;;;;;;;;19.23;82.34;100075.72;1632883;85;21155;-80
2021/08/15 03:25:38;;;;;;;;;;;;;;;19.26;82.57;100077.16;1635316;86;20140;-80
2021/08/15 03:28:04;;;;;;;;;;;;;;;19.31;82.58;100071.47;1633770;87;20211;-80
2021/08/15 03:30:32;;;;;;;;;;;;;;;19.31;82.78;100072.81;1595703;87;20151;-80
2021/08/15 03:32:57;;;;;;;;;;;;;;;19.32;82.97;100077.11;1635006;86;20155;-80
2021/08/15 03:35:23;;;;;;;;;;;;;;;19.31;82.89;100072.81;1633978;85;21113;-80
2021/08/15 03:37:48;;;;;;;;;;;;;;;19.25;83.63;100070.99;1634970;86;20135;-80
2021/08/15 03:40:14;;;;;;;;;;;;;;;19.21;83.99;100069.77;1627713;86;20151;-80
2021/08/15 03:42:40;;;;;;;;;;;;;;;19.19;84.09;100071.84;1623882;87;20127;-80
2021/08/15 03:45:10;;;;;;;;;;;;;;;19.21;84.15;100064.41;1622278;87;20153;-80
2021/08/15 03:47:36;;;;;;;;;;;;;;;19.26;83.94;100061.91;1622227;88;22041;-80
2021/08/15 03:50:04;;;;;;;;;;;;;;;19.19;84.47;100059.80;1622770;88;20143;-80
2021/08/15 03:52:29;;;;;;;;;;;;;;;19.11;84.91;100062.71;1623373;88;20132;-80
2021/08/15 03:54:55;;;;;;;;;;;;;;;19.10;85.01;100059.75;1624119;86;20749;-80
2021/08/15 03:57:22;;;;;;;;;;;;;;;19.23;84.72;100062.33;1620395;88;20143;-80
2021/08/15 03:59:48;;;;;;;;;;;;;;;19.37;84.08;100065.25;1606044;88;20571;-80
2021/08/15 04:02:13;;;;;;;;;;;;;;;19.32;84.19;100063.72;1627538;86;20141;-80
2021/08/15 04:04:39;;;;;;;;;;;;;;;19.45;84.11;100067.34;1625784;87;20835;-80
2021/08/15 04:07:04;;;;;;;;;;;;;;;19.53;83.60;100063.09;1606886;87;21287;-79
2021/08/15 04:09:30;;;;;;;;;;;;;;;19.57;83.21;100054.90;1620507;88;20174;-80
2021/08/15 04:11:58;;;;;;;;;;;;;;;19.52;83.10;100054.73;1621984;88;21105;-80
2021/08/15 04:14:23;;;;;;;;;;;;;;;19.51;83.35;100053.93;1623315;86;20366;-81
2021/08/15 04:16:51;;;;;;;;;;;;;;;19.53;83.36;100052.38;1622993;86;20542;-81
2021/08/15 04:19:19;;;;;;;;;;;;;;;19.53;83.55;100043.00;1623542;88;20466;-81
2021/08/15 04:21:44;;;;;;;;;;;;;;;19.53;83.51;100042.47;1624591;86;20194;-81
2021/08/15 04:24:10;;;;;;;;;;;;;;;19.64;83.50;100042.28;1624906;86;20667;-80
2021/08/15 04:26:37;;;;;;;;;;;;;;;19.68;83.33;100049.35;1622472;88;20128;-80
2021/08/15 04:29:03;;;;;;;;;;;;;;;19.72;83.30;100043.34;1623673;88;20184;-80
2021/08/15 04:31:28;;;;;;;;;;;;;;;19.82;82.95;100040.72;1625598;86;20168;-81
2021/08/15 04:33:56;;;;;;;;;;;;;;;19.92;82.60;100047.75;1623470;86;20167;-81
2021/08/15 04:36:21;;;;;;;;;;;;;;;19.95;82.62;100037.93;1623847;87;20255;-81
2021/08/15 04:38:49;;;;;;;;;;;;;;;20.08;82.24;100035.62;1624080;87;20238;-81
2021/08/15 04:41:16;;;;;;;;;;;;;;;20.17;81.93;100040.20;1624601;86;20508;-82
2021/08/15 04:43:42;;;;;;;;;;;;;;;20.24;81.89;100035.56;1628955;87;20206;-81
2021/08/15 04:46:07;;;;;;;;;;;;;;;20.31;81.70;100034.98;1625066;87;20173;-81
2021/08/15 04:48:35;;;;;;;;;;;;;;;20.39;81.61;100036.55;1634373;87;21125;-80
2021/08/15 04:51:00;;;;;;;;;;;;;;;20.44;81.56;100037.49;1621671;87;20228;-81
2021/08/15 04:53:27;;;;;;;;;;;;;;;20.50;81.52;100032.30;1623082;87;20489;-80
2021/08/15 04:55:53;;;;;;;;;;;;;;;20.57;81.31;100031.67;1627823;87;20255;-81
2021/08/15 04:58:19;;;;;;;;;;;;;;;20.62;81.26;100031.84;1625010;87;20172;-81
2021/08/15 05:00:46;;;;;;;;;;;;;;;20.62;81.57;100038.55;1630127;87;21122;-81
2021/08/15 05:03:15;;;;;;;;;;;;;;;20.73;81.50;100033.79;1632794;86;20205;-82
2021/08/15 05:05:41;;;;;;;;;;;;;;;20.80;81.42;100033.19;1622229;87;20523;-82
2021/08/15 05:08:07;;;;;;;;;;;;;;;20.90;81.36;100035.86;1628401;87;21141;-82
2021/08/15 05:10:32;;;;;;;;;;;;;;;20.96;81.18;100029.58;1630327;87;20497;-82
2021/08/15 05:12:58;;;;;;;;;;;;;;;21.01;81.17;100034.27;1634629;87;21152;-82
2021/08/15 05:15:23;;;;;;;;;;;;;;;21.05;80.99;100033.58;1623073;87;20193;-81
2021/08/15 05:17:49;;;;;;;;;;;;;;;21.21;80.73;100025.89;1630817;86;20192;-82
2021/08/15 05:20:15;;;;;;;;;;;;;;;21.32;80.44;100030.50;1634107;86;20280;-82
2021/08/15 05:22:41;;;;;;;;;;;;;;;21.39;80.21;100036.57;1629903;86;20200;-81
2021/08/15 05:25:07;;;;;;;;;;;;;;;21.51;79.79;100025.89;1597334;87;21000;-81
2021/08/15 05:27:33;;;;;;;;;;;;;;;21.55;79.88;100030.27;1624003;87;20210;-81
2021/08/15 05:30:00;;;;;;;;;;;;;;;21.64;79.55;100031.06;1625340;87;20554;-81
2021/08/15 05:32:25;;;;;;;;;;;;;;;21.71;79.42;100025.56;1630480;86;20265;-81
2021/08/15 05:34:53;;;;;;;;;;;;;;;21.82;79.37;100024.73;1628093;87;20297;-81
2021/08/15 05:37:18;;;;;;;;;;;;;;;21.83;79.11;100030.42;1624548;87;21966;-82
2021/08/15 05:39:44;;;;;;;;;;;;;;;21.91;79.17;100029.76;1632956;87;20168;-81
2021/08/15 05:42:09;;;;;;;;;;;;;;;22.02;79.04;100026.27;1633479;87;20554;-81
2021/08/15 05:44:36;;;;;;;;;;;;;;;22.06;78.84;100024.72;1635331;86;20150;-81
2021/08/15 05:47:04;;;;;;;;;;;;;;;22.11;78.87;100019.48;1637556;86;20595;-81
2021/08/15 05:49:31;;;;;;;;;;;;;;;22.15;78.71;100028.69;1631996;87;21299;-82
2021/08/15 05:51:57;;;;;;;;;;;;;;;22.32;78.45;100034.73;1637230;86;20158;-82
2021/08/15 05:54:24;;;;;;;;;;;;;;;22.40;78.32;100028.47;1635962;86;20535;-83
2021/08/15 05:56:49;;;;;;;;;;;;;;;22.49;78.11;100032.94;1636943;87;20183;-82
2021/08/15 05:59:15;;;;;;;;;;;;;;;22.58;77.76;100026.66;1633782;87;20135;-82
2021/08/15 06:01:40;;;;;;;;;;;;;;;22.64;77.57;100027.56;1634302;86;21885;-82
2021/08/15 06:04:06;;;;;;;;;;;;;;;22.69;77.51;100024.99;1635248;87;20199;-82
2021/08/15 06:06:31;;;;;;;;;;;;;;;22.80;77.18;100023.31;1636264;86;20464;-83
2021/08/15 06:08:57;;;;;;;;;;;;;;;22.80;77.20;100023.31;1635232;86;20175;-82
2021/08/15 06:11:22;;;;;;;;;;;;;;;22.85;77.38;100021.52;1636439;87;20473;-83
2021/08/15 06:13:50;;;;;;;;;;;;;;;22.82;77.81;100022.00;1634459;86;21794;-83
2021/08/15 06:16:16;;;;;;;;;;;;;;;22.87;77.70;100023.45;1614253;87;20198;-83
2021/08/15 06:18:41;;;;;;;;;;;;;;;22.97;77.74;100028.75;1632536;87;20775;-83
2021/08/15 06:21:09;;;;;;;;;;;;;;;22.93;78.18;100030.58;1633837;87;20204;-83
2021/08/15 06:23:35;;;;;;;;;;;;;;;23.05;77.96;100038.58;1636743;85;20195;-82
2021/08/15 06:26:01;;;;;;;;;;;;;;;23.18;77.56;100032.12;1634297;87;21121;-82
2021/08/15 06:28:27;;;;;;;;;;;;;;;23.25;77.52;100038.16;1633562;86;20221;-82
2021/08/15 06:30:52;;;;;;;;;;;;;;;23.40;77.43;100042.17;1636066;87;20171;-81
2021/08/15 06:33:18;;;;;;;;;;;;;;;23.41;76.95;100041.13;1635454;87;20147;-81
2021/08/15 06:35:43;;;;;;;;;;;;;;;23.39;77.07;100037.86;1634295;86;20171;-82
2021/08/15 06:38:09;;;;;;;;;;;;;;;23.45;77.12;100035.55;1638933;85;21069;-81
2021/08/15 06:40:35;;;;;;;;;;;;;;;23.61;76.68;100039.29;1633539;86;20214;-81
2021/08/15 06:43:08;;;;;;;;;;;;;;;23.71;75.97;100036.77;1629279;87;20158;-82
2021/08/15 06:45:34;;;;;;;;;;;;;;;23.92;75.60;100032.51;1627819;87;20224;-81
2021/08/15 06:47:59;;;;;;;;;;;;;;;24.03;75.19;100034.02;1630853;87;20250;-82
2021/08/15 06:50:25;;;;;;;;;;;;;;;24.11;74.85;100034.94;1629352;87;21246;-82
2021/08/15 06:52:52;;;;;;;;;;;;;;;24.19;74.21;100034.49;1628383;87;20144;-82
2021/08/15 06:55:18;;;;;;;;;;;;;;;24.28;73.90;100026.25;1625906;87;20290;-83
2021/08/15 06:57:43;;;;;;;;;;;;;;;24.35;73.04;100024.19;1628567;87;20167;-82
2021/08/15 07:00:10;;;;;;;;;;;;;;;24.50;73.05;100028.14;1626649;87;20275;-86
2021/08/15 07:02:46;;;;;;;;;;;;;;;24.57;72.82;100021.22;1628589;87;22071;-83
2021/08/15 07:05:10;;;;;;;;;;;;;;;24.67;72.54;100028.94;1628342;87;20096;-83
2021/08/15 07:07:37;;;;;;;;;;;;;;;24.78;72.05;100030.38;1629029;87;20278;-83
2021/08/15 07:10:08;;;;;;;;;;;;;;;24.82;71.12;100031.52;1626897;87;20199;-82
2021/08/15 07:12:37;;;;;;;;;;;;;;;24.88;70.35;100031.31;1628206;87;21201;-83
2021/08/15 07:15:06;;;;;;;;;;;;;;;24.98;70.58;100025.19;1627439;87;20741;-89
2021/08/15 07:17:35;;;;;;;;;;;;;;;25.12;69.91;100024.78;1627734;86;20213;-83
2021/08/15 07:19:59;;;;;;;;;;;;;;;25.11;68.25;100025.84;1628491;87;20194;-83
2021/08/15 07:22:25;;;;;;;;;;;;;;;25.22;68.04;100023.54;1630631;86;20193;-82
2021/08/15 07:24:52;;;;;;;;;;;;;;;25.19;67.98;100033.52;1629426;86;20167;-83
2021/08/15 07:27:17;;;;;;;;;;;;;;;25.31;68.42;100031.49;1627247;86;21049;-83
2021/08/15 07:29:43;;;;;;;;;;;;;;;25.40;67.90;100029.11;1599237;87;20373;-85
2021/08/15 07:32:08;;;;;;;;;;;;;;;25.52;67.74;100032.46;1631375;86;20199;-85
2021/08/15 07:34:34;;;;;;;;;;;;;;;25.61;67.34;100036.31;1629984;87;20464;-86
2021/08/15 07:37:01;;;;;;;;;;;;;;;25.64;67.28;100037.70;1606202;87;20177;-83
2021/08/15 07:39:29;;;;;;;;;;;;;;;25.71;64.98;100032.86;1626624;87;21113;-81
2021/08/15 07:41:55;;;;;;;;;;;;;;;25.79;64.83;100026.16;1629644;86;20219;-82
2021/08/15 07:44:22;;;;;;;;;;;;;;;25.85;63.34;100028.36;1630811;86;20450;-79
2021/08/15 07:46:50;;;;;;;;;;;;;;;25.87;63.66;100030.27;1627463;87;20481;-81
2021/08/15 07:49:15;;;;;;;;;;;;;;;25.94;61.46;100028.16;1628609;86;20140;-80
2021/08/15 07:51:44;;;;;;;;;;;;;;;25.94;60.42;100033.56;1629372;86;21108;-81
2021/08/15 07:54:17;;;;;;;;;;;;;;;25.90;60.20;100029.74;1630593;86;21002;-79
2021/08/15 07:56:42;;;;;;;;;;;;;;;26.03;60.47;100029.33;1626056;87;20223;-79
2021/08/15 07:59:10;;;;;;;;;;;;;;;26.21;60.02;100031.30;1629005;86;20505;-79
2021/08/15 08:01:36;;;;;;;;;;;;;;;26.24;59.56;100021.30;1631481;86;20206;-81
2021/08/15 08:04:04;;;;;;;;;;;;;;;26.11;58.91;100027.47;1631238;87;21854;-83
2021/08/15 08:06:30;;;;;;;;;;;;;;;26.04;59.77;100027.42;1629222;86;20236;-80
2021/08/15 08:08:55;;;;;;;;;;;;;;;26.15;60.76;100028.58;1629261;87;20135;-81
2021/08/15 08:11:21;;;;;;;;;;;;;;;26.32;60.75;100026.23;1632576;86;20454;-79
2021/08/15 08:13:47;;;;;;;;;;;;;;;26.42;60.01;100026.26;1629090;86;20139;-80
2021/08/15 08:16:17;;;;;;;;;;;;;;;26.56;58.98;100024.42;1627498;86;21174;-80
2021/08/15 08:18:44;;;;;;;;;;;;;;;26.57;57.39;100024.67;1627543;87;20529;-80
2021/08/15 08:21:11;;;;;;;;;;;;;;;26.65;57.02;100026.89;1632183;86;21108;-82
2021/08/15 08:23:36;;;;;;;;;;;;;;;26.66;56.00;100031.23;1632507;86;20289;-81
2021/08/15 08:26:03;;;;;;;;;;;;;;;26.69;55.23;100024.77;1630878;87;20159;-79
2021/08/15 08:28:29;;;;;;;;;;;;;;;26.58;54.24;100024.41;1630038;86;21206;-81
2021/08/15 08:30:55;;;;;;;;;;;;;;;26.74;54.50;100029.39;1630237;86;20152;-82
2021/08/15 08:33:20;;;;;;;;;;;;;;;26.76;52.42;100036.70;1628746;87;20136;-79
2021/08/15 08:35:46;;;;;;;;;;;;;;;26.69;51.74;100028.00;1628811;86;20151;-79
2021/08/15 08:38:11;;;;;;;;;;;;;;;26.77;51.28;100016.66;1627353;87;20414;-79
2021/08/15 08:40:37;;;;;;;;;;;;;;;26.78;51.12;100014.20;1632203;86;20974;-81
2021/08/15 08:43:03;;;;;;;;;;;;;;;26.92;51.72;100020.48;1636225;85;20175;-80
2021/08/15 08:45:28;;;;;;;;;;;;;;;27.03;50.71;100019.41;1637840;87;20795;-80
2021/08/15 08:47:54;;;;;;;;;;;;;;;27.05;49.25;100023.48;1636458;86;20178;-79
2021/08/15 08:50:22;;;;;;;;;;;;;;;27.11;48.91;100010.73;1638553;85;20123;-79
2021/08/15 08:52:51;;;;;;;;;;;;;;;27.32;49.46;100010.80;1636105;86;21077;-80
2021/08/15 08:55:18;;;;;;;;;;;;;;;27.48;49.64;100020.53;1637133;87;20160;-82
2021/08/15 08:57:44;;;;;;;;;;;;;;;27.49;48.22;100012.68;1637088;86;20334;-83
2021/08/15 09:00:11;;;;;;;;;;;;;;;27.24;47.46;100013.47;1637468;85;20165;-83
2021/08/15 09:02:36;;;;;;;;;;;;;;;27.28;47.80;100006.95;1634953;85;20145;-82
2021/08/15 09:05:03;;;;;;;;;;;;;;;27.36;48.25;100014.58;1632096;85;21171;-83
2021/08/15 09:07:34;;;;;;;;;;;;;;;27.36;48.13;100014.58;1635945;87;20155;-83
2021/08/15 09:10:01;;;;;;;;;;;;;;;27.23;48.58;100008.57;1609531;87;20523;-83
2021/08/15 09:12:43;;;;;;;;;;;;;;;27.27;49.15;100014.81;1635162;86;20793;-83
2021/08/15 09:15:18;;;;;;;;;;;;;;;27.35;49.10;100018.39;1637916;86;20211;-87
2021/08/15 09:17:45;;;;;;;;;;;;;;;27.46;50.18;100011.06;1637133;86;21116;-83
2021/08/15 09:20:15;;;;;;;;;;;;;;;27.53;50.37;100012.42;1633216;87;20183;-88
2021/08/15 09:22:40;;;;;;;;;;;;;;;27.59;49.98;100005.06;1637341;86;20179;-81
2021/08/15 09:25:10;;;;;;;;;;;;;;;27.52;49.40;100001.28;1634662;87;21064;-81
2021/08/15 09:27:39;;;;;;;;;;;;;;;27.55;49.00;100012.95;1611146;86;20212;-81
2021/08/15 09:30:31;;;;;;;;;;;;;;;27.53;48.19;99998.86;1578888;89;21876;-81
2021/08/15 09:33:08;;;;;;;;;;;;;;;27.53;49.15;99998.86;1635838;86;20192;-81
2021/08/15 09:35:37;;;;;;;;;;;;;;;27.43;48.75;100006.98;1637323;87;20162;-81
2021/08/15 09:38:06;;;;;;;;;;;;;;;27.45;48.65;99999.38;1632381;86;20204;-81
2021/08/15 09:40:35;;;;;;;;;;;;;;;27.38;48.20;100003.73;1612214;87;20230;-81
2021/08/15 09:43:04;;;;;;;;;;;;;;;27.44;47.84;99997.78;1621598;87;20825;-81
2021/08/15 09:45:40;;;;;;;;;;;;;;;27.54;47.17;99995.59;1624394;88;20132;-81
2021/08/15 09:48:21;;;;;;;;;;;;;;;27.50;46.67;99995.86;1622088;88;20449;-81
2021/08/15 09:51:22;;;;;;;;;;;;;;;27.49;47.33;99995.05;1622191;88;20215;-81
2021/08/15 09:53:58;;;;;;;;;;;;;;;27.49;47.39;100000.48;1622748;88;20186;-81
2021/08/15 09:56:37;;;;;;;;;;;;;;;27.53;46.91;99985.30;1622517;88;21216;-81
2021/08/15 09:59:16;;;;;;;;;;;;;;;27.53;47.09;99989.36;1623306;86;20136;-81
2021/08/15 10:01:44;;;;;;;;;;;;;;;27.66;46.56;99993.95;1622431;88;20189;-81
2021/08/15 10:04:10;;;;;;;;;;;;;;;27.69;46.32;99989.34;1621980;86;20484;-81
2021/08/15 10:06:37;;;;;;;;;;;;;;;27.81;46.37;99993.92;1622789;88;20502;-81
2021/08/15 10:09:03;;;;;;;;;;;;;;;27.86;46.26;99987.64;1620877;86;21909;-81
2021/08/15 10:11:30;;;;;;;;;;;;;;;27.85;46.56;100003.13;1623443;87;20239;-80
2021/08/15 10:13:55;;;;;;;;;;;;;;;27.92;46.80;99983.30;1619349;87;20181;-82
2021/08/15 10:16:21;;;;;;;;;;;;;;;27.89;46.62;99990.64;1623719;87;20774;-81
2021/08/15 10:18:49;;;;;;;;;;;;;;;27.87;46.10;99986.02;1621752;87;20157;-82
2021/08/15 10:21:20;;;;;;;;;;;;;;;27.97;46.79;99981.67;1623545;86;39149;-81
2021/08/15 10:23:46;;;;;;;;;;;;;;;27.89;46.70;99977.07;1626981;87;20220;-81
2021/08/15 10:26:30;;;;;;;;;;;;;;;27.98;47.06;99979.24;1622898;87;20187;-81
2021/08/15 10:28:56;;;;;;;;;;;;;;;28.00;46.89;99982.48;1624513;86;20209;-82
2021/08/15 10:31:22;;;;;;;;;;;;;;;28.07;46.53;99972.95;1621235;88;20199;-81
2021/08/15 10:33:53;;;;;;;;;;;;;;;28.02;46.44;99974.89;1621670;88;21270;-81
2021/08/15 10:36:28;;;;;;;;;;;;;;;28.05;46.75;99964.28;1619569;86;20184;-81
2021/08/15 10:38:57;;;;;;;;;;;;;;;28.17;46.58;99972.13;1620795;87;20220;-81
2021/08/15 10:41:46;;;;;;;;;;;;;;;28.08;46.74;99954.78;1622391;86;20851;-81
2021/08/15 10:44:14;;;;;;;;;;;;;;;28.14;46.89;99948.24;1635214;87;20497;-81
2021/08/15 10:47:09;;;;;;;;;;;;;;;28.32;46.85;99941.34;1612597;87;20516;-81
2021/08/15 10:49:55;;;;;;;;;;;;;;;28.41;46.88;99941.59;1636707;87;20184;-81
2021/08/15 10:52:34;;;;;;;;;;;;;;;28.24;46.61;99938.67;1635932;86;20547;-81
2021/08/15 10:55:02;;;;;;;;;;;;;;;28.19;46.46;99935.19;1635782;87;20143;-81
2021/08/15 10:57:39;;;;;;;;;;;;;;;28.24;46.67;99940.59;1636062;87;20239;-81
2021/08/15 11:00:32;;;;;;;;;;;;;;;28.13;46.50;99937.66;1633214;85;21102;-81
2021/08/15 11:02:59;;;;;;;;;;;;;;;28.11;46.42;99938.73;1635977;87;20972;-81
2021/08/15 11:05:39;;;;;;;;;;;;;;;28.15;46.17;99940.34;1636898;87;20563;-81
2021/08/15 11:08:05;;;;;;;;;;;;;;;28.02;45.26;99949.91;1634983;86;21652;-81
2021/08/15 11:11:09;;;;;;;;;;;;;;;27.92;45.38;99940.41;1612980;87;20156;-81
2021/08/15 11:13:35;;;;;;;;;;;;;;;28.11;45.50;99929.80;1633868;86;20536;-81
2021/08/15 11:16:29;;;;;;;;;;;;;;;28.09;45.03;99928.72;1611627;87;20496;-81
2021/08/15 11:19:13;;;;;;;;;;;;;;;28.15;45.17;99928.12;1636237;86;20516;-81
2021/08/15 11:22:14;;;;;;;;;;;;;;;28.33;45.55;99927.25;1630895;85;21329;-82
2021/08/15 11:24:47;;;;;;;;;;;;;;;28.23;44.76;99926.73;1633893;87;20212;-81
2021/08/15 11:27:25;;;;;;;;;;;;;;;28.22;45.00;99923.22;1634533;87;21125;-82
2021/08/15 11:29:52;;;;;;;;;;;;;;;28.36;45.00;99919.89;1633921;86;20517;-83
2021/08/15 11:32:28;;;;;;;;;;;;;;;28.24;44.64;99934.59;1637223;86;20139;-81
2021/08/15 11:35:11;;;;;;;;;;;;;;;28.37;44.20;99918.78;1634556;85;20267;-81
2021/08/15 11:37:54;;;;;;;;;;;;;;;28.55;44.37;99918.13;1633324;85;20271;-82
2021/08/15 11:40:22;;;;;;;;;;;;;;;28.35;44.34;99918.27;1634464;86;21372;-82
2021/08/15 11:43:05;;;;;;;;;;;;;;;28.42;44.90;99910.63;1628915;87;20893;-82
2021/08/15 11:45:32;;;;;;;;;;;;;;;28.39;45.15;99916.62;1628799;87;20130;-82
2021/08/15 11:48:08;;;;;;;;;;;;;;;28.53;44.47;99913.53;1626392;87;20209;-81
2021/08/15 11:50:34;;;;;;;;;;;;;;;28.57;44.28;99915.96;1629478;87;20577;-81
2021/08/15 11:53:00;;;;;;;;;;;;;;;28.61;43.93;99914.31;1629667;87;21136;-81
2021/08/15 11:55:27;;;;;;;;;;;;;;;28.67;43.50;99919.70;1628496;87;20884;-82
2021/08/15 11:57:54;;;;;;;;;;;;;;;28.61;43.77;99908.88;1625986;87;20140;-82
2021/08/15 12:00:33;;;;;;;;;;;;;;;28.55;43.97;99924.12;1628985;87;20148;-81
2021/08/15 12:03:05;;;;;;;;;;;;;;;28.52;42.80;99918.69;1629148;87;20096;-82
2021/08/15 12:05:32;;;;;;;;;;;;;;;28.55;42.99;99911.89;1626379;87;21091;-81
2021/08/15 12:08:03;;;;;;;;;;;;;;;28.39;43.66;99915.27;1626021;87;20166;-82
2021/08/15 12:10:30;;;;;;;;;;;;;;;28.38;44.07;99914.98;1623768;87;20213;-82
2021/08/15 12:13:15;;;;;;;;;;;;;;;28.62;44.29;99902.36;1594096;87;20204;-82
2021/08/15 12:15:43;;;;;;;;;;;;;;;28.79;43.55;99898.42;1627962;87;20181;-82
2021/08/15 12:18:27;;;;;;;;;;;;;;;29.00;43.14;99901.23;1627838;86;22277;-82
2021/08/15 12:20:52;;;;;;;;;;;;;;;28.86;43.84;99900.83;1628757;86;20244;-82
2021/08/15 12:23:21;;;;;;;;;;;;;;;28.96;43.25;99894.77;1627361;87;20193;-82
2021/08/15 12:26:02;;;;;;;;;;;;;;;28.97;42.80;99904.52;1625381;87;20222;-81
2021/08/15 12:28:31;;;;;;;;;;;;;;;29.03;43.06;99900.42;1630847;87;20314;-81
2021/08/15 12:31:19;;;;;;;;;;;;;;;29.00;42.83;99897.16;1630890;86;21140;-81
2021/08/15 12:33:45;;;;;;;;;;;;;;;29.05;43.04;99894.14;1626801;87;20232;-81
2021/08/15 12:36:19;;;;;;;;;;;;;;;29.13;42.18;99897.59;1626122;87;20144;-81
2021/08/15 12:38:47;;;;;;;;;;;;;;;29.21;42.12;99894.30;1629314;87;20223;-81
2021/08/15 12:41:29;;;;;;;;;;;;;;;29.28;42.08;99908.35;1624283;87;20228;-81
2021/08/15 12:44:08;;;;;;;;;;;;;;;29.38;41.77;99893.03;1612450;87;20143;-81